sensor_id;sensor_type;location;lat;lon;timestamp;P1;durP1;ratioP1;P2;durP2;ratioP2
68921;SDS011;55959;51.244;5.724;2023-08-08T00:01:23;3.27;;;2.40;;
68921;SDS011;55959;51.244;5.724;2023-08-08T00:03:48;2.63;;;1.83;;
68921;SDS011;55959;51.244;5.724;2023-08-08T00:06:14;3.40;;;2.47;;
68921;SDS011;55959;51.244;5.724;2023-08-08T00:08:40;2.30;;;2.07;;
68921;SDS011;55959;51.244;5.724;2023-08-08T00:11:06;2.57;;;2.20;;
68921;SDS011;55959;51.244;5.724;2023-08-08T00:13:32;2.30;;;2.00;;
68921;SDS011;55959;51.244;5.724;2023-08-08T00:15:58;4.40;;;2.20;;
68921;SDS011;55959;51.244;5.724;2023-08-08T00:18:23;2.73;;;1.73;;
68921;SDS011;55959;51.244;5.724;2023-08-08T00:20:49;3.60;;;2.10;;
68921;SDS011;55959;51.244;5.724;2023-08-08T00:23:15;2.30;;;1.90;;
68921;SDS011;55959;51.244;5.724;2023-08-08T00:25:41;3.53;;;2.33;;
68921;SDS011;55959;51.244;5.724;2023-08-08T00:28:06;2.97;;;1.97;;
68921;SDS011;55959;51.244;5.724;2023-08-08T00:30:32;2.23;;;1.97;;
68921;SDS011;55959;51.244;5.724;2023-08-08T00:32:58;2.87;;;1.80;;
68921;SDS011;55959;51.244;5.724;2023-08-08T00:35:24;3.83;;;2.20;;
68921;SDS011;55959;51.244;5.724;2023-08-08T00:37:49;2.30;;;1.60;;
68921;SDS011;55959;51.244;5.724;2023-08-08T00:40:16;2.73;;;1.70;;
68921;SDS011;55959;51.244;5.724;2023-08-08T00:42:42;3.37;;;2.10;;
68921;SDS011;55959;51.244;5.724;2023-08-08T00:45:07;3.07;;;1.70;;
68921;SDS011;55959;51.244;5.724;2023-08-08T00:47:34;2.07;;;1.83;;
68921;SDS011;55959;51.244;5.724;2023-08-08T00:50:00;3.40;;;1.80;;
68921;SDS011;55959;51.244;5.724;2023-08-08T00:52:28;2.67;;;1.70;;
68921;SDS011;55959;51.244;5.724;2023-08-08T00:54:54;3.20;;;2.17;;
68921;SDS011;55959;51.244;5.724;2023-08-08T00:57:20;2.30;;;2.10;;
68921;SDS011;55959;51.244;5.724;2023-08-08T00:59:47;2.53;;;2.00;;
68921;SDS011;55959;51.244;5.724;2023-08-08T01:02:13;2.50;;;2.00;;
68921;SDS011;55959;51.244;5.724;2023-08-08T01:04:39;2.53;;;2.10;;
68921;SDS011;55959;51.244;5.724;2023-08-08T01:07:25;3.77;;;2.00;;
68921;SDS011;55959;51.244;5.724;2023-08-08T01:10:01;2.30;;;1.90;;
68921;SDS011;55959;51.244;5.724;2023-08-08T01:12:38;2.73;;;2.10;;
68921;SDS011;55959;51.244;5.724;2023-08-08T01:15:10;1.97;;;1.77;;
68921;SDS011;55959;51.244;5.724;2023-08-08T01:17:37;2.17;;;1.70;;
68921;SDS011;55959;51.244;5.724;2023-08-08T01:20:04;5.67;;;1.90;;
68921;SDS011;55959;51.244;5.724;2023-08-08T01:22:35;2.67;;;2.00;;
68921;SDS011;55959;51.244;5.724;2023-08-08T01:25:04;2.60;;;2.00;;
68921;SDS011;55959;51.244;5.724;2023-08-08T01:27:32;3.10;;;2.10;;
68921;SDS011;55959;51.244;5.724;2023-08-08T01:29:58;2.20;;;2.00;;
68921;SDS011;55959;51.244;5.724;2023-08-08T01:32:23;2.10;;;1.90;;
68921;SDS011;55959;51.244;5.724;2023-08-08T01:34:49;2.40;;;1.97;;
68921;SDS011;55959;51.244;5.724;2023-08-08T01:37:23;3.43;;;2.53;;
68921;SDS011;55959;51.244;5.724;2023-08-08T01:39:57;2.20;;;1.60;;
68921;SDS011;55959;51.244;5.724;2023-08-08T01:42:25;2.37;;;1.93;;
68921;SDS011;55959;51.244;5.724;2023-08-08T01:44:51;3.57;;;2.07;;
68921;SDS011;55959;51.244;5.724;2023-08-08T01:47:18;3.57;;;2.00;;
68921;SDS011;55959;51.244;5.724;2023-08-08T01:49:44;2.83;;;2.00;;
68921;SDS011;55959;51.244;5.724;2023-08-08T01:52:10;1.87;;;1.73;;
68921;SDS011;55959;51.244;5.724;2023-08-08T01:54:35;2.50;;;1.90;;
68921;SDS011;55959;51.244;5.724;2023-08-08T01:57:01;3.43;;;2.40;;
68921;SDS011;55959;51.244;5.724;2023-08-08T01:59:27;1.63;;;1.53;;
68921;SDS011;55959;51.244;5.724;2023-08-08T02:01:53;2.77;;;1.90;;
68921;SDS011;55959;51.244;5.724;2023-08-08T02:04:19;3.07;;;1.80;;
68921;SDS011;55959;51.244;5.724;2023-08-08T02:06:46;3.93;;;1.97;;
68921;SDS011;55959;51.244;5.724;2023-08-08T02:09:13;3.87;;;2.10;;
68921;SDS011;55959;51.244;5.724;2023-08-08T02:11:41;2.63;;;1.97;;
68921;SDS011;55959;51.244;5.724;2023-08-08T02:14:07;2.80;;;1.80;;
68921;SDS011;55959;51.244;5.724;2023-08-08T02:16:33;2.70;;;2.00;;
68921;SDS011;55959;51.244;5.724;2023-08-08T02:18:59;3.47;;;1.90;;
68921;SDS011;55959;51.244;5.724;2023-08-08T02:21:25;3.50;;;1.97;;
68921;SDS011;55959;51.244;5.724;2023-08-08T02:23:51;3.50;;;2.10;;
68921;SDS011;55959;51.244;5.724;2023-08-08T02:26:17;4.73;;;1.90;;
68921;SDS011;55959;51.244;5.724;2023-08-08T02:28:43;3.47;;;1.90;;
68921;SDS011;55959;51.244;5.724;2023-08-08T02:31:09;3.43;;;1.70;;
68921;SDS011;55959;51.244;5.724;2023-08-08T02:33:34;3.07;;;1.90;;
68921;SDS011;55959;51.244;5.724;2023-08-08T02:36:00;3.63;;;1.80;;
68921;SDS011;55959;51.244;5.724;2023-08-08T02:38:26;3.90;;;2.27;;
68921;SDS011;55959;51.244;5.724;2023-08-08T02:40:51;5.53;;;1.83;;
68921;SDS011;55959;51.244;5.724;2023-08-08T02:43:18;3.87;;;2.30;;
68921;SDS011;55959;51.244;5.724;2023-08-08T02:45:43;2.80;;;1.87;;
68921;SDS011;55959;51.244;5.724;2023-08-08T02:48:09;4.00;;;2.00;;
68921;SDS011;55959;51.244;5.724;2023-08-08T02:50:35;2.83;;;2.20;;
68921;SDS011;55959;51.244;5.724;2023-08-08T02:53:01;4.33;;;2.17;;
68921;SDS011;55959;51.244;5.724;2023-08-08T02:55:26;3.40;;;2.00;;
68921;SDS011;55959;51.244;5.724;2023-08-08T02:57:52;5.63;;;2.10;;
68921;SDS011;55959;51.244;5.724;2023-08-08T03:00:18;3.47;;;1.90;;
68921;SDS011;55959;51.244;5.724;2023-08-08T03:02:44;3.90;;;1.90;;
68921;SDS011;55959;51.244;5.724;2023-08-08T03:05:09;3.20;;;1.60;;
68921;SDS011;55959;51.244;5.724;2023-08-08T03:07:35;3.43;;;2.00;;
68921;SDS011;55959;51.244;5.724;2023-08-08T03:10:01;4.63;;;1.90;;
68921;SDS011;55959;51.244;5.724;2023-08-08T03:12:26;2.57;;;1.87;;
68921;SDS011;55959;51.244;5.724;2023-08-08T03:14:53;4.13;;;2.33;;
68921;SDS011;55959;51.244;5.724;2023-08-08T03:17:19;4.73;;;2.33;;
68921;SDS011;55959;51.244;5.724;2023-08-08T03:19:44;3.27;;;1.90;;
68921;SDS011;55959;51.244;5.724;2023-08-08T03:22:10;3.83;;;1.83;;
68921;SDS011;55959;51.244;5.724;2023-08-08T03:24:36;5.63;;;2.10;;
68921;SDS011;55959;51.244;5.724;2023-08-08T03:27:01;3.43;;;2.07;;
68921;SDS011;55959;51.244;5.724;2023-08-08T03:29:28;5.93;;;2.30;;
68921;SDS011;55959;51.244;5.724;2023-08-08T03:31:54;3.27;;;2.20;;
68921;SDS011;55959;51.244;5.724;2023-08-08T03:34:20;3.57;;;1.80;;
68921;SDS011;55959;51.244;5.724;2023-08-08T03:36:45;3.63;;;1.80;;
68921;SDS011;55959;51.244;5.724;2023-08-08T03:39:11;6.13;;;2.47;;
68921;SDS011;55959;51.244;5.724;2023-08-08T03:41:37;3.73;;;2.00;;
68921;SDS011;55959;51.244;5.724;2023-08-08T03:44:04;2.57;;;1.90;;
68921;SDS011;55959;51.244;5.724;2023-08-08T03:46:29;4.70;;;2.23;;
68921;SDS011;55959;51.244;5.724;2023-08-08T03:48:55;4.47;;;2.13;;
68921;SDS011;55959;51.244;5.724;2023-08-08T03:51:21;4.80;;;1.90;;
68921;SDS011;55959;51.244;5.724;2023-08-08T03:53:47;6.00;;;1.90;;
68921;SDS011;55959;51.244;5.724;2023-08-08T03:56:13;4.37;;;2.30;;
68921;SDS011;55959;51.244;5.724;2023-08-08T03:58:38;2.83;;;1.87;;
68921;SDS011;55959;51.244;5.724;2023-08-08T04:01:04;4.43;;;2.17;;
68921;SDS011;55959;51.244;5.724;2023-08-08T04:03:30;5.27;;;2.47;;
68921;SDS011;55959;51.244;5.724;2023-08-08T04:05:56;5.40;;;2.27;;
68921;SDS011;55959;51.244;5.724;2023-08-08T04:08:21;4.90;;;2.30;;
68921;SDS011;55959;51.244;5.724;2023-08-08T04:10:47;3.63;;;2.20;;
68921;SDS011;55959;51.244;5.724;2023-08-08T04:13:13;4.10;;;1.93;;
68921;SDS011;55959;51.244;5.724;2023-08-08T04:15:38;4.07;;;2.30;;
68921;SDS011;55959;51.244;5.724;2023-08-08T04:18:04;4.00;;;2.70;;
68921;SDS011;55959;51.244;5.724;2023-08-08T04:20:32;2.93;;;2.13;;
68921;SDS011;55959;51.244;5.724;2023-08-08T04:23:00;3.47;;;2.33;;
68921;SDS011;55959;51.244;5.724;2023-08-08T04:25:26;5.23;;;2.83;;
68921;SDS011;55959;51.244;5.724;2023-08-08T04:27:52;4.77;;;2.53;;
68921;SDS011;55959;51.244;5.724;2023-08-08T04:30:18;4.13;;;2.40;;
68921;SDS011;55959;51.244;5.724;2023-08-08T04:32:44;5.07;;;2.50;;
68921;SDS011;55959;51.244;5.724;2023-08-08T04:35:10;4.97;;;2.43;;
68921;SDS011;55959;51.244;5.724;2023-08-08T04:37:36;7.00;;;2.70;;
68921;SDS011;55959;51.244;5.724;2023-08-08T04:40:03;5.07;;;2.17;;
68921;SDS011;55959;51.244;5.724;2023-08-08T04:42:30;5.03;;;2.40;;
68921;SDS011;55959;51.244;5.724;2023-08-08T04:44:55;5.33;;;2.83;;
68921;SDS011;55959;51.244;5.724;2023-08-08T04:47:21;3.80;;;2.43;;
68921;SDS011;55959;51.244;5.724;2023-08-08T04:49:47;6.63;;;3.23;;
68921;SDS011;55959;51.244;5.724;2023-08-08T04:52:12;4.07;;;2.20;;
68921;SDS011;55959;51.244;5.724;2023-08-08T04:54:38;2.97;;;2.43;;
68921;SDS011;55959;51.244;5.724;2023-08-08T04:57:04;4.53;;;2.77;;
68921;SDS011;55959;51.244;5.724;2023-08-08T04:59:30;5.67;;;3.23;;
68921;SDS011;55959;51.244;5.724;2023-08-08T05:01:57;4.27;;;2.50;;
68921;SDS011;55959;51.244;5.724;2023-08-08T05:04:22;6.80;;;2.70;;
68921;SDS011;55959;51.244;5.724;2023-08-08T05:06:48;7.73;;;3.37;;
68921;SDS011;55959;51.244;5.724;2023-08-08T05:09:14;5.20;;;2.43;;
68921;SDS011;55959;51.244;5.724;2023-08-08T05:11:40;5.20;;;2.40;;
68921;SDS011;55959;51.244;5.724;2023-08-08T05:14:06;4.47;;;2.77;;
68921;SDS011;55959;51.244;5.724;2023-08-08T05:16:32;4.60;;;2.83;;
68921;SDS011;55959;51.244;5.724;2023-08-08T05:18:58;4.77;;;2.80;;
68921;SDS011;55959;51.244;5.724;2023-08-08T05:21:23;5.97;;;2.77;;
68921;SDS011;55959;51.244;5.724;2023-08-08T05:23:49;5.87;;;2.97;;
68921;SDS011;55959;51.244;5.724;2023-08-08T05:26:15;5.00;;;2.73;;
68921;SDS011;55959;51.244;5.724;2023-08-08T05:28:41;5.77;;;2.60;;
68921;SDS011;55959;51.244;5.724;2023-08-08T05:31:07;7.43;;;2.67;;
68921;SDS011;55959;51.244;5.724;2023-08-08T05:33:32;3.37;;;2.33;;
68921;SDS011;55959;51.244;5.724;2023-08-08T05:35:58;5.27;;;2.80;;
68921;SDS011;55959;51.244;5.724;2023-08-08T05:38:24;5.77;;;3.00;;
68921;SDS011;55959;51.244;5.724;2023-08-08T05:40:50;4.53;;;2.50;;
68921;SDS011;55959;51.244;5.724;2023-08-08T05:43:16;5.50;;;2.27;;
68921;SDS011;55959;51.244;5.724;2023-08-08T05:45:46;6.60;;;2.37;;
68921;SDS011;55959;51.244;5.724;2023-08-08T05:48:12;6.13;;;2.50;;
68921;SDS011;55959;51.244;5.724;2023-08-08T05:50:38;6.73;;;2.37;;
68921;SDS011;55959;51.244;5.724;2023-08-08T05:53:04;3.53;;;2.23;;
68921;SDS011;55959;51.244;5.724;2023-08-08T05:55:30;5.03;;;2.53;;
68921;SDS011;55959;51.244;5.724;2023-08-08T05:57:56;5.47;;;2.47;;
68921;SDS011;55959;51.244;5.724;2023-08-08T06:00:22;5.23;;;2.33;;
68921;SDS011;55959;51.244;5.724;2023-08-08T06:02:48;4.13;;;2.03;;
68921;SDS011;55959;51.244;5.724;2023-08-08T06:05:14;5.45;;;2.38;;
68921;SDS011;55959;51.244;5.724;2023-08-08T06:07:41;4.07;;;2.42;;
68921;SDS011;55959;51.244;5.724;2023-08-08T06:10:07;4.38;;;2.42;;
68921;SDS011;55959;51.244;5.724;2023-08-08T06:12:35;4.35;;;2.03;;
68921;SDS011;55959;51.244;5.724;2023-08-08T06:15:02;5.50;;;2.20;;
68921;SDS011;55959;51.244;5.724;2023-08-08T06:17:31;6.80;;;2.50;;
68921;SDS011;55959;51.244;5.724;2023-08-08T06:19:56;4.43;;;2.25;;
68921;SDS011;55959;51.244;5.724;2023-08-08T06:22:22;5.72;;;2.47;;
68921;SDS011;55959;51.244;5.724;2023-08-08T06:24:49;5.07;;;2.03;;
68921;SDS011;55959;51.244;5.724;2023-08-08T06:27:14;6.35;;;2.55;;
68921;SDS011;55959;51.244;5.724;2023-08-08T06:29:40;4.85;;;2.20;;
68921;SDS011;55959;51.244;5.724;2023-08-08T06:32:06;3.60;;;1.80;;
68921;SDS011;55959;51.244;5.724;2023-08-08T06:34:32;4.35;;;2.45;;
68921;SDS011;55959;51.244;5.724;2023-08-08T06:36:58;3.15;;;1.95;;
68921;SDS011;55959;51.244;5.724;2023-08-08T06:39:24;3.78;;;1.73;;
68921;SDS011;55959;51.244;5.724;2023-08-08T06:41:50;5.65;;;2.45;;
68921;SDS011;55959;51.244;5.724;2023-08-08T06:44:15;5.13;;;2.20;;
68921;SDS011;55959;51.244;5.724;2023-08-08T06:46:41;4.70;;;1.67;;
68921;SDS011;55959;51.244;5.724;2023-08-08T06:49:07;3.88;;;1.98;;
68921;SDS011;55959;51.244;5.724;2023-08-08T06:51:33;4.22;;;2.15;;
68921;SDS011;55959;51.244;5.724;2023-08-08T06:54:01;6.07;;;2.30;;
68921;SDS011;55959;51.244;5.724;2023-08-08T06:56:26;4.37;;;2.00;;
68921;SDS011;55959;51.244;5.724;2023-08-08T06:58:53;5.57;;;1.95;;
68921;SDS011;55959;51.244;5.724;2023-08-08T07:01:18;5.10;;;2.50;;
68921;SDS011;55959;51.244;5.724;2023-08-08T07:03:44;4.13;;;2.10;;
68921;SDS011;55959;51.244;5.724;2023-08-08T07:06:11;4.13;;;2.03;;
68921;SDS011;55959;51.244;5.724;2023-08-08T07:08:37;6.90;;;2.40;;
68921;SDS011;55959;51.244;5.724;2023-08-08T07:11:06;5.90;;;1.80;;
68921;SDS011;55959;51.244;5.724;2023-08-08T07:13:32;4.63;;;2.37;;
68921;SDS011;55959;51.244;5.724;2023-08-08T07:15:58;6.53;;;2.70;;
68921;SDS011;55959;51.244;5.724;2023-08-08T07:18:23;5.72;;;2.20;;
68921;SDS011;55959;51.244;5.724;2023-08-08T07:20:49;5.63;;;2.63;;
68921;SDS011;55959;51.244;5.724;2023-08-08T07:23:15;4.50;;;2.30;;
68921;SDS011;55959;51.244;5.724;2023-08-08T07:25:41;5.15;;;2.38;;
68921;SDS011;55959;51.244;5.724;2023-08-08T07:28:07;5.93;;;2.63;;
68921;SDS011;55959;51.244;5.724;2023-08-08T07:30:33;4.70;;;2.30;;
68921;SDS011;55959;51.244;5.724;2023-08-08T07:33:00;6.10;;;2.50;;
68921;SDS011;55959;51.244;5.724;2023-08-08T07:35:26;4.63;;;2.30;;
68921;SDS011;55959;51.244;5.724;2023-08-08T07:37:52;5.67;;;2.90;;
68921;SDS011;55959;51.244;5.724;2023-08-08T07:40:19;3.65;;;2.22;;
68921;SDS011;55959;51.244;5.724;2023-08-08T07:42:46;6.40;;;2.67;;
68921;SDS011;55959;51.244;5.724;2023-08-08T07:45:13;4.47;;;2.60;;
68921;SDS011;55959;51.244;5.724;2023-08-08T07:47:40;5.70;;;2.70;;
68921;SDS011;55959;51.244;5.724;2023-08-08T07:50:07;7.70;;;2.50;;
68921;SDS011;55959;51.244;5.724;2023-08-08T07:52:34;5.93;;;2.63;;
68921;SDS011;55959;51.244;5.724;2023-08-08T07:55:01;5.07;;;2.30;;
68921;SDS011;55959;51.244;5.724;2023-08-08T07:57:28;7.67;;;2.30;;
68921;SDS011;55959;51.244;5.724;2023-08-08T07:59:55;7.03;;;2.53;;
68921;SDS011;55959;51.244;5.724;2023-08-08T08:02:21;5.93;;;3.20;;
68921;SDS011;55959;51.244;5.724;2023-08-08T08:04:46;6.18;;;2.45;;
68921;SDS011;55959;51.244;5.724;2023-08-08T08:07:12;4.83;;;2.20;;
68921;SDS011;55959;51.244;5.724;2023-08-08T08:09:38;5.30;;;2.70;;
68921;SDS011;55959;51.244;5.724;2023-08-08T08:12:07;3.95;;;2.65;;
68921;SDS011;55959;51.244;5.724;2023-08-08T08:14:33;4.67;;;2.60;;
68921;SDS011;55959;51.244;5.724;2023-08-08T08:16:59;8.27;;;2.65;;
68921;SDS011;55959;51.244;5.724;2023-08-08T08:19:25;5.40;;;2.45;;
68921;SDS011;55959;51.244;5.724;2023-08-08T08:21:51;4.55;;;2.50;;
68921;SDS011;55959;51.244;5.724;2023-08-08T08:24:16;5.03;;;2.03;;
68921;SDS011;55959;51.244;5.724;2023-08-08T08:26:42;5.57;;;2.40;;
68921;SDS011;55959;51.244;5.724;2023-08-08T08:29:08;6.85;;;2.55;;
68921;SDS011;55959;51.244;5.724;2023-08-08T08:31:33;5.30;;;2.20;;
68921;SDS011;55959;51.244;5.724;2023-08-08T08:33:59;6.15;;;2.17;;
68921;SDS011;55959;51.244;5.724;2023-08-08T08:36:25;6.10;;;2.25;;
68921;SDS011;55959;51.244;5.724;2023-08-08T08:38:51;5.38;;;2.40;;
68921;SDS011;55959;51.244;5.724;2023-08-08T08:41:18;3.92;;;1.90;;
68921;SDS011;55959;51.244;5.724;2023-08-08T08:43:50;4.10;;;2.30;;
68921;SDS011;55959;51.244;5.724;2023-08-08T08:46:17;5.30;;;1.88;;
68921;SDS011;55959;51.244;5.724;2023-08-08T08:48:47;4.15;;;2.00;;
68921;SDS011;55959;51.244;5.724;2023-08-08T08:51:18;5.63;;;2.13;;
68921;SDS011;55959;51.244;5.724;2023-08-08T08:53:44;5.00;;;2.30;;
68921;SDS011;55959;51.244;5.724;2023-08-08T08:56:11;3.97;;;2.00;;
68921;SDS011;55959;51.244;5.724;2023-08-08T08:58:40;3.83;;;1.55;;
68921;SDS011;55959;51.244;5.724;2023-08-08T09:01:07;4.22;;;1.80;;
68921;SDS011;55959;51.244;5.724;2023-08-08T09:03:34;3.30;;;1.65;;
68921;SDS011;55959;51.244;5.724;2023-08-08T09:05:59;4.70;;;1.80;;
68921;SDS011;55959;51.244;5.724;2023-08-08T09:08:26;5.97;;;1.95;;
68921;SDS011;55959;51.244;5.724;2023-08-08T09:10:52;2.90;;;1.73;;
68921;SDS011;55959;51.244;5.724;2023-08-08T09:13:18;4.10;;;1.60;;
68921;SDS011;55959;51.244;5.724;2023-08-08T09:15:47;3.72;;;1.73;;
68921;SDS011;55959;51.244;5.724;2023-08-08T09:18:14;4.75;;;2.10;;
68921;SDS011;55959;51.244;5.724;2023-08-08T09:20:40;3.17;;;1.80;;
68921;SDS011;55959;51.244;5.724;2023-08-08T09:23:05;4.03;;;1.65;;
68921;SDS011;55959;51.244;5.724;2023-08-08T09:25:31;3.53;;;1.65;;
68921;SDS011;55959;51.244;5.724;2023-08-08T09:27:57;3.22;;;1.55;;
68921;SDS011;55959;51.244;5.724;2023-08-08T09:30:22;4.72;;;1.73;;
68921;SDS011;55959;51.244;5.724;2023-08-08T09:32:48;4.45;;;1.70;;
68921;SDS011;55959;51.244;5.724;2023-08-08T09:35:14;3.50;;;1.60;;
68921;SDS011;55959;51.244;5.724;2023-08-08T09:37:40;3.67;;;1.77;;
68921;SDS011;55959;51.244;5.724;2023-08-08T09:40:07;2.92;;;1.85;;
68921;SDS011;55959;51.244;5.724;2023-08-08T09:42:33;2.92;;;1.50;;
68921;SDS011;55959;51.244;5.724;2023-08-08T09:45:00;3.72;;;1.50;;
68921;SDS011;55959;51.244;5.724;2023-08-08T09:47:26;4.00;;;1.92;;
68921;SDS011;55959;51.244;5.724;2023-08-08T09:49:59;4.35;;;1.83;;
68921;SDS011;55959;51.244;5.724;2023-08-08T09:52:29;6.20;;;1.58;;
68921;SDS011;55959;51.244;5.724;2023-08-08T09:54:55;4.65;;;2.05;;
68921;SDS011;55959;51.244;5.724;2023-08-08T09:57:22;2.13;;;1.23;;
68921;SDS011;55959;51.244;5.724;2023-08-08T09:59:49;2.63;;;1.30;;
68921;SDS011;55959;51.244;5.724;2023-08-08T10:02:16;3.70;;;1.73;;
68921;SDS011;55959;51.244;5.724;2023-08-08T10:04:43;3.15;;;1.50;;
68921;SDS011;55959;51.244;5.724;2023-08-08T10:07:11;4.50;;;1.70;;
68921;SDS011;55959;51.244;5.724;2023-08-08T10:09:36;2.08;;;1.20;;
68921;SDS011;55959;51.244;5.724;2023-08-08T10:12:03;4.28;;;1.92;;
68921;SDS011;55959;51.244;5.724;2023-08-08T10:14:31;3.55;;;1.67;;
68921;SDS011;55959;51.244;5.724;2023-08-08T10:17:04;2.53;;;1.40;;
68921;SDS011;55959;51.244;5.724;2023-08-08T10:19:31;3.38;;;1.55;;
68921;SDS011;55959;51.244;5.724;2023-08-08T10:21:59;4.43;;;1.60;;
68921;SDS011;55959;51.244;5.724;2023-08-08T10:24:32;5.97;;;2.00;;
68921;SDS011;55959;51.244;5.724;2023-08-08T10:27:00;3.70;;;1.90;;
68921;SDS011;55959;51.244;5.724;2023-08-08T10:29:29;4.00;;;1.48;;
68921;SDS011;55959;51.244;5.724;2023-08-08T10:34:41;4.68;;;1.60;;
68921;SDS011;55959;51.244;5.724;2023-08-08T10:37:12;3.42;;;1.67;;
68921;SDS011;55959;51.244;5.724;2023-08-08T10:42:43;3.65;;;1.60;;
68921;SDS011;55959;51.244;5.724;2023-08-08T10:45:11;2.78;;;1.80;;
68921;SDS011;55959;51.244;5.724;2023-08-08T10:47:39;2.80;;;1.75;;
68921;SDS011;55959;51.244;5.724;2023-08-08T10:50:11;3.50;;;1.55;;
68921;SDS011;55959;51.244;5.724;2023-08-08T10:57:59;4.80;;;1.77;;
68921;SDS011;55959;51.244;5.724;2023-08-08T11:00:38;1.88;;;1.25;;
68921;SDS011;55959;51.244;5.724;2023-08-08T11:03:06;2.45;;;1.70;;
68921;SDS011;55959;51.244;5.724;2023-08-08T11:05:34;3.35;;;1.48;;
68921;SDS011;55959;51.244;5.724;2023-08-08T11:08:02;2.08;;;1.40;;
68921;SDS011;55959;51.244;5.724;2023-08-08T11:10:34;2.97;;;1.45;;
68921;SDS011;55959;51.244;5.724;2023-08-08T11:13:04;4.00;;;1.70;;
68921;SDS011;55959;51.244;5.724;2023-08-08T11:15:32;3.38;;;1.60;;
68921;SDS011;55959;51.244;5.724;2023-08-08T11:18:00;4.30;;;1.90;;
68921;SDS011;55959;51.244;5.724;2023-08-08T11:20:31;3.47;;;2.00;;
68921;SDS011;55959;51.244;5.724;2023-08-08T11:22:58;4.28;;;1.73;;
68921;SDS011;55959;51.244;5.724;2023-08-08T11:25:25;3.92;;;1.77;;
68921;SDS011;55959;51.244;5.724;2023-08-08T11:27:55;4.22;;;2.20;;
68921;SDS011;55959;51.244;5.724;2023-08-08T11:30:22;2.50;;;1.80;;
68921;SDS011;55959;51.244;5.724;2023-08-08T11:32:50;3.55;;;1.70;;
68921;SDS011;55959;51.244;5.724;2023-08-08T11:35:25;5.03;;;1.73;;
68921;SDS011;55959;51.244;5.724;2023-08-08T11:37:52;2.15;;;1.77;;
68921;SDS011;55959;51.244;5.724;2023-08-08T11:40:22;3.53;;;1.50;;
68921;SDS011;55959;51.244;5.724;2023-08-08T11:42:51;4.30;;;1.70;;
68921;SDS011;55959;51.244;5.724;2023-08-08T11:45:18;2.47;;;1.60;;
68921;SDS011;55959;51.244;5.724;2023-08-08T11:47:48;3.65;;;2.05;;
68921;SDS011;55959;51.244;5.724;2023-08-08T11:50:21;3.58;;;1.60;;
68921;SDS011;55959;51.244;5.724;2023-08-08T11:52:50;3.63;;;1.67;;
68921;SDS011;55959;51.244;5.724;2023-08-08T11:55:21;2.88;;;1.40;;
68921;SDS011;55959;51.244;5.724;2023-08-08T11:57:53;3.00;;;1.55;;
68921;SDS011;55959;51.244;5.724;2023-08-08T12:00:27;2.25;;;1.55;;
68921;SDS011;55959;51.244;5.724;2023-08-08T12:02:56;2.92;;;1.60;;
68921;SDS011;55959;51.244;5.724;2023-08-08T12:05:23;3.47;;;1.70;;
68921;SDS011;55959;51.244;5.724;2023-08-08T12:07:49;2.53;;;1.30;;
68921;SDS011;55959;51.244;5.724;2023-08-08T12:10:20;3.00;;;1.27;;
68921;SDS011;55959;51.244;5.724;2023-08-08T12:12:55;4.93;;;1.35;;
68921;SDS011;55959;51.244;5.724;2023-08-08T12:15:27;2.67;;;1.65;;
68921;SDS011;55959;51.244;5.724;2023-08-08T12:17:58;1.88;;;1.00;;
68921;SDS011;55959;51.244;5.724;2023-08-08T12:20:26;3.10;;;1.48;;
68921;SDS011;55959;51.244;5.724;2023-08-08T12:22:56;1.23;;;1.13;;
68921;SDS011;55959;51.244;5.724;2023-08-08T12:25:22;3.30;;;1.30;;
68921;SDS011;55959;51.244;5.724;2023-08-08T12:27:48;2.17;;;1.00;;
68921;SDS011;55959;51.244;5.724;2023-08-08T12:30:14;3.63;;;1.23;;
68921;SDS011;55959;51.244;5.724;2023-08-08T12:32:40;4.18;;;1.30;;
68921;SDS011;55959;51.244;5.724;2023-08-08T12:35:06;1.50;;;1.13;;
68921;SDS011;55959;51.244;5.724;2023-08-08T12:37:32;4.10;;;1.40;;
68921;SDS011;55959;51.244;5.724;2023-08-08T12:39:58;2.42;;;1.00;;
68921;SDS011;55959;51.244;5.724;2023-08-08T12:42:24;2.63;;;1.20;;
68921;SDS011;55959;51.244;5.724;2023-08-08T12:44:50;1.75;;;1.00;;
68921;SDS011;55959;51.244;5.724;2023-08-08T12:47:19;4.72;;;1.25;;
68921;SDS011;55959;51.244;5.724;2023-08-08T12:49:47;1.92;;;1.50;;
68921;SDS011;55959;51.244;5.724;2023-08-08T12:52:13;1.52;;;1.00;;
68921;SDS011;55959;51.244;5.724;2023-08-08T12:54:39;3.00;;;1.15;;
68921;SDS011;55959;51.244;5.724;2023-08-08T12:57:05;1.88;;;1.30;;
68921;SDS011;55959;51.244;5.724;2023-08-08T12:59:30;2.30;;;1.20;;
68921;SDS011;55959;51.244;5.724;2023-08-08T13:01:56;2.08;;;1.50;;
68921;SDS011;55959;51.244;5.724;2023-08-08T13:04:22;2.40;;;1.45;;
68921;SDS011;55959;51.244;5.724;2023-08-08T13:06:48;2.00;;;1.20;;
68921;SDS011;55959;51.244;5.724;2023-08-08T13:09:14;2.13;;;1.02;;
68921;SDS011;55959;51.244;5.724;2023-08-08T13:11:40;2.97;;;1.20;;
68921;SDS011;55959;51.244;5.724;2023-08-08T13:14:06;3.17;;;1.10;;
68921;SDS011;55959;51.244;5.724;2023-08-08T13:16:32;2.15;;;1.15;;
68921;SDS011;55959;51.244;5.724;2023-08-08T13:18:58;1.83;;;1.10;;
68921;SDS011;55959;51.244;5.724;2023-08-08T13:21:24;2.88;;;1.23;;
68921;SDS011;55959;51.244;5.724;2023-08-08T13:23:49;2.38;;;1.35;;
68921;SDS011;55959;51.244;5.724;2023-08-08T13:26:15;2.45;;;1.45;;
68921;SDS011;55959;51.244;5.724;2023-08-08T13:28:41;1.20;;;1.10;;
68921;SDS011;55959;51.244;5.724;2023-08-08T13:31:08;2.60;;;1.10;;
68921;SDS011;55959;51.244;5.724;2023-08-08T13:33:35;1.67;;;1.02;;
68921;SDS011;55959;51.244;5.724;2023-08-08T13:36:00;2.35;;;1.35;;
68921;SDS011;55959;51.244;5.724;2023-08-08T13:38:26;2.13;;;1.20;;
68921;SDS011;55959;51.244;5.724;2023-08-08T13:40:53;2.47;;;0.90;;
68921;SDS011;55959;51.244;5.724;2023-08-08T13:43:18;1.52;;;0.90;;
68921;SDS011;55959;51.244;5.724;2023-08-08T13:45:45;2.13;;;0.95;;
68921;SDS011;55959;51.244;5.724;2023-08-08T13:48:10;1.70;;;1.02;;
68921;SDS011;55959;51.244;5.724;2023-08-08T13:50:36;1.92;;;0.90;;
68921;SDS011;55959;51.244;5.724;2023-08-08T13:53:02;1.90;;;1.60;;
68921;SDS011;55959;51.244;5.724;2023-08-08T13:55:28;1.60;;;1.05;;
68921;SDS011;55959;51.244;5.724;2023-08-08T13:57:54;1.60;;;1.10;;
68921;SDS011;55959;51.244;5.724;2023-08-08T14:00:20;1.60;;;1.13;;
68921;SDS011;55959;51.244;5.724;2023-08-08T14:02:46;1.92;;;1.20;;
68921;SDS011;55959;51.244;5.724;2023-08-08T14:05:12;2.28;;;1.35;;
68921;SDS011;55959;51.244;5.724;2023-08-08T14:07:38;1.85;;;1.02;;
68921;SDS011;55959;51.244;5.724;2023-08-08T14:10:05;1.20;;;1.10;;
68921;SDS011;55959;51.244;5.724;2023-08-08T14:12:31;1.70;;;0.88;;
68921;SDS011;55959;51.244;5.724;2023-08-08T14:14:58;3.17;;;0.98;;
68921;SDS011;55959;51.244;5.724;2023-08-08T14:17:23;2.35;;;1.00;;
68921;SDS011;55959;51.244;5.724;2023-08-08T14:19:49;1.35;;;0.80;;
68921;SDS011;55959;51.244;5.724;2023-08-08T14:22:15;1.65;;;1.10;;
68921;SDS011;55959;51.244;5.724;2023-08-08T14:24:44;1.95;;;1.13;;
68921;SDS011;55959;51.244;5.724;2023-08-08T14:27:10;2.63;;;1.10;;
68921;SDS011;55959;51.244;5.724;2023-08-08T14:29:35;1.58;;;1.10;;
68921;SDS011;55959;51.244;5.724;2023-08-08T14:32:02;1.85;;;1.20;;
68921;SDS011;55959;51.244;5.724;2023-08-08T14:34:32;1.50;;;1.00;;
68921;SDS011;55959;51.244;5.724;2023-08-08T14:36:59;1.67;;;1.00;;
68921;SDS011;55959;51.244;5.724;2023-08-08T14:39:26;1.17;;;1.08;;
68921;SDS011;55959;51.244;5.724;2023-08-08T14:41:52;2.20;;;1.40;;
68921;SDS011;55959;51.244;5.724;2023-08-08T14:44:18;1.77;;;1.10;;
68921;SDS011;55959;51.244;5.724;2023-08-08T14:46:44;2.33;;;1.60;;
68921;SDS011;55959;51.244;5.724;2023-08-08T14:49:10;2.75;;;1.30;;
68921;SDS011;55959;51.244;5.724;2023-08-08T14:51:35;2.42;;;1.52;;
68921;SDS011;55959;51.244;5.724;2023-08-08T14:54:02;1.52;;;1.10;;
68921;SDS011;55959;51.244;5.724;2023-08-08T14:56:28;1.75;;;1.35;;